FVCC weather

C.C. Strip
C.C. Strip, Mashonaland West Province, Zimbabwe

Public forecast

Using degrees Celsius for public forecast. Weather courtesy of forecast.io.

METAR (pilot weather report)

Closest report is Robert Gabriel Mugabe International Airport, 54.3 nm (100.7 km) ESE. Retrieved 2019/05/26 09:00 UTC (1 hour ago):

FVRG 260900Z 18006KT 9999 BKN040 20/09 Q1027 NOSIG

TAF (pilot weather forecast)

Closest forecast is Robert Gabriel Mugabe International Airport, 54.3 nm (100.7 km) ESE. Retrieved 2019/05/26 06:00 UTC (4 hours ago):

TAF FVRG 260400Z 2606/2712 11005KT CAVOK